sensor_id;sensor_type;location;lat;lon;timestamp;P1;durP1;ratioP1;P2;durP2;ratioP2
1685;SDS011;840;47.980;7.830;2022-10-17T00:00:45;5.03;;;2.70;;
1685;SDS011;840;47.980;7.830;2022-10-17T00:03:12;7.13;;;3.17;;
1685;SDS011;840;47.980;7.830;2022-10-17T00:05:41;3.83;;;2.23;;
1685;SDS011;840;47.980;7.830;2022-10-17T00:08:09;2.47;;;2.07;;
1685;SDS011;840;47.980;7.830;2022-10-17T00:10:37;2.63;;;1.50;;
1685;SDS011;840;47.980;7.830;2022-10-17T00:13:05;5.33;;;2.00;;
1685;SDS011;840;47.980;7.830;2022-10-17T00:15:33;4.90;;;2.27;;
1685;SDS011;840;47.980;7.830;2022-10-17T00:17:59;2.60;;;1.97;;
1685;SDS011;840;47.980;7.830;2022-10-17T00:20:26;3.93;;;2.10;;
1685;SDS011;840;47.980;7.830;2022-10-17T00:22:55;2.60;;;1.30;;
1685;SDS011;840;47.980;7.830;2022-10-17T00:25:22;2.60;;;2.40;;
1685;SDS011;840;47.980;7.830;2022-10-17T00:27:49;5.53;;;2.43;;
1685;SDS011;840;47.980;7.830;2022-10-17T00:30:16;3.20;;;1.83;;
1685;SDS011;840;47.980;7.830;2022-10-17T00:32:42;2.07;;;1.87;;
1685;SDS011;840;47.980;7.830;2022-10-17T00:35:09;3.40;;;2.60;;
1685;SDS011;840;47.980;7.830;2022-10-17T00:37:37;5.50;;;1.97;;
1685;SDS011;840;47.980;7.830;2022-10-17T00:40:06;1.63;;;1.53;;
1685;SDS011;840;47.980;7.830;2022-10-17T00:42:34;4.10;;;2.40;;
1685;SDS011;840;47.980;7.830;2022-10-17T00:45:04;2.93;;;2.00;;
1685;SDS011;840;47.980;7.830;2022-10-17T00:47:33;6.77;;;1.83;;
1685;SDS011;840;47.980;7.830;2022-10-17T00:50:01;4.20;;;1.90;;
1685;SDS011;840;47.980;7.830;2022-10-17T00:52:29;2.20;;;2.00;;
1685;SDS011;840;47.980;7.830;2022-10-17T00:54:57;7.73;;;2.40;;
1685;SDS011;840;47.980;7.830;2022-10-17T00:57:28;2.03;;;1.90;;
1685;SDS011;840;47.980;7.830;2022-10-17T00:59:57;2.80;;;2.10;;
1685;SDS011;840;47.980;7.830;2022-10-17T01:02:25;5.73;;;1.80;;
1685;SDS011;840;47.980;7.830;2022-10-17T01:04:52;3.50;;;3.20;;
1685;SDS011;840;47.980;7.830;2022-10-17T01:07:23;6.50;;;2.63;;
1685;SDS011;840;47.980;7.830;2022-10-17T01:09:50;3.20;;;1.73;;
1685;SDS011;840;47.980;7.830;2022-10-17T01:12:18;7.63;;;2.30;;
1685;SDS011;840;47.980;7.830;2022-10-17T01:14:52;2.80;;;2.00;;
1685;SDS011;840;47.980;7.830;2022-10-17T01:17:29;4.20;;;2.00;;
1685;SDS011;840;47.980;7.830;2022-10-17T01:20:18;5.03;;;3.10;;
1685;SDS011;840;47.980;7.830;2022-10-17T01:23:08;2.97;;;2.27;;
1685;SDS011;840;47.980;7.830;2022-10-17T01:25:51;3.13;;;2.13;;
1685;SDS011;840;47.980;7.830;2022-10-17T01:28:30;2.80;;;1.93;;
1685;SDS011;840;47.980;7.830;2022-10-17T01:31:09;4.00;;;2.70;;
1685;SDS011;840;47.980;7.830;2022-10-17T01:33:46;2.60;;;1.90;;
1685;SDS011;840;47.980;7.830;2022-10-17T01:36:30;8.70;;;1.70;;
1685;SDS011;840;47.980;7.830;2022-10-17T01:39:05;2.20;;;2.00;;
1685;SDS011;840;47.980;7.830;2022-10-17T01:41:39;2.07;;;1.50;;
1685;SDS011;840;47.980;7.830;2022-10-17T01:44:09;3.60;;;2.33;;
1685;SDS011;840;47.980;7.830;2022-10-17T01:46:40;4.23;;;1.93;;
1685;SDS011;840;47.980;7.830;2022-10-17T01:49:12;4.60;;;1.80;;
1685;SDS011;840;47.980;7.830;2022-10-17T01:51:41;3.90;;;1.83;;
1685;SDS011;840;47.980;7.830;2022-10-17T01:54:13;2.70;;;2.50;;
1685;SDS011;840;47.980;7.830;2022-10-17T01:56:43;8.00;;;2.60;;
1685;SDS011;840;47.980;7.830;2022-10-17T01:59:14;2.83;;;1.97;;
1685;SDS011;840;47.980;7.830;2022-10-17T02:01:46;4.47;;;2.67;;
1685;SDS011;840;47.980;7.830;2022-10-17T02:04:16;5.57;;;2.43;;
1685;SDS011;840;47.980;7.830;2022-10-17T02:06:43;2.70;;;2.10;;
1685;SDS011;840;47.980;7.830;2022-10-17T02:09:17;2.00;;;1.80;;
1685;SDS011;840;47.980;7.830;2022-10-17T02:11:49;3.83;;;1.97;;
1685;SDS011;840;47.980;7.830;2022-10-17T02:14:31;2.07;;;1.80;;
1685;SDS011;840;47.980;7.830;2022-10-17T02:17:10;4.07;;;2.20;;
1685;SDS011;840;47.980;7.830;2022-10-17T02:19:49;3.90;;;2.00;;
1685;SDS011;840;47.980;7.830;2022-10-17T02:22:26;2.33;;;2.07;;
1685;SDS011;840;47.980;7.830;2022-10-17T02:25:02;2.30;;;1.80;;
1685;SDS011;840;47.980;7.830;2022-10-17T02:27:37;5.13;;;1.90;;
1685;SDS011;840;47.980;7.830;2022-10-17T02:30:10;2.70;;;2.20;;
1685;SDS011;840;47.980;7.830;2022-10-17T02:32:41;6.87;;;2.40;;
1685;SDS011;840;47.980;7.830;2022-10-17T02:35:15;9.50;;;3.03;;
1685;SDS011;840;47.980;7.830;2022-10-17T02:37:44;1.77;;;1.67;;
1685;SDS011;840;47.980;7.830;2022-10-17T02:40:13;2.00;;;1.80;;
1685;SDS011;840;47.980;7.830;2022-10-17T02:42:42;4.73;;;3.30;;
1685;SDS011;840;47.980;7.830;2022-10-17T02:45:11;5.57;;;2.23;;
1685;SDS011;840;47.980;7.830;2022-10-17T02:47:42;6.77;;;1.97;;
1685;SDS011;840;47.980;7.830;2022-10-17T02:50:16;3.57;;;2.50;;
1685;SDS011;840;47.980;7.830;2022-10-17T02:52:47;2.57;;;1.80;;
1685;SDS011;840;47.980;7.830;2022-10-17T02:55:22;2.80;;;2.03;;
1685;SDS011;840;47.980;7.830;2022-10-17T02:57:51;3.30;;;2.70;;
1685;SDS011;840;47.980;7.830;2022-10-17T03:00:21;4.03;;;2.60;;
1685;SDS011;840;47.980;7.830;2022-10-17T03:02:52;3.23;;;2.73;;
1685;SDS011;840;47.980;7.830;2022-10-17T03:05:20;3.57;;;2.60;;
1685;SDS011;840;47.980;7.830;2022-10-17T03:07:48;2.30;;;2.20;;
1685;SDS011;840;47.980;7.830;2022-10-17T03:10:15;3.80;;;2.07;;
1685;SDS011;840;47.980;7.830;2022-10-17T03:12:43;2.60;;;2.10;;
1685;SDS011;840;47.980;7.830;2022-10-17T03:15:10;5.43;;;2.00;;
1685;SDS011;840;47.980;7.830;2022-10-17T03:17:37;4.23;;;2.30;;
1685;SDS011;840;47.980;7.830;2022-10-17T03:20:06;4.67;;;2.57;;
1685;SDS011;840;47.980;7.830;2022-10-17T03:22:33;4.53;;;2.00;;
1685;SDS011;840;47.980;7.830;2022-10-17T03:25:00;2.40;;;2.00;;
1685;SDS011;840;47.980;7.830;2022-10-17T03:27:26;3.23;;;2.13;;
1685;SDS011;840;47.980;7.830;2022-10-17T03:29:53;2.70;;;1.80;;
1685;SDS011;840;47.980;7.830;2022-10-17T03:32:20;2.60;;;2.40;;
1685;SDS011;840;47.980;7.830;2022-10-17T03:34:47;3.60;;;2.47;;
1685;SDS011;840;47.980;7.830;2022-10-17T03:37:15;6.80;;;3.00;;
1685;SDS011;840;47.980;7.830;2022-10-17T03:39:42;2.37;;;1.83;;
1685;SDS011;840;47.980;7.830;2022-10-17T03:42:09;4.23;;;2.53;;
1685;SDS011;840;47.980;7.830;2022-10-17T03:44:36;2.83;;;1.97;;
1685;SDS011;840;47.980;7.830;2022-10-17T03:47:02;2.57;;;1.90;;
1685;SDS011;840;47.980;7.830;2022-10-17T03:49:29;12.83;;;2.47;;
1685;SDS011;840;47.980;7.830;2022-10-17T03:51:56;7.70;;;2.33;;
1685;SDS011;840;47.980;7.830;2022-10-17T03:54:24;4.53;;;2.60;;
1685;SDS011;840;47.980;7.830;2022-10-17T03:56:51;3.13;;;2.93;;
1685;SDS011;840;47.980;7.830;2022-10-17T03:59:18;1.90;;;1.77;;
1685;SDS011;840;47.980;7.830;2022-10-17T04:01:44;4.53;;;2.63;;
1685;SDS011;840;47.980;7.830;2022-10-17T04:04:11;2.50;;;2.30;;
1685;SDS011;840;47.980;7.830;2022-10-17T04:06:39;6.10;;;2.73;;
1685;SDS011;840;47.980;7.830;2022-10-17T04:09:06;2.93;;;2.17;;
1685;SDS011;840;47.980;7.830;2022-10-17T04:11:34;5.03;;;3.00;;
1685;SDS011;840;47.980;7.830;2022-10-17T04:14:01;5.07;;;2.37;;
1685;SDS011;840;47.980;7.830;2022-10-17T04:16:28;2.20;;;2.10;;
1685;SDS011;840;47.980;7.830;2022-10-17T04:18:55;6.57;;;2.43;;
1685;SDS011;840;47.980;7.830;2022-10-17T04:21:25;5.50;;;2.17;;
1685;SDS011;840;47.980;7.830;2022-10-17T04:23:52;2.97;;;2.40;;
1685;SDS011;840;47.980;7.830;2022-10-17T04:26:20;4.30;;;2.00;;
1685;SDS011;840;47.980;7.830;2022-10-17T04:28:48;3.30;;;2.53;;
1685;SDS011;840;47.980;7.830;2022-10-17T04:31:15;3.07;;;2.77;;
1685;SDS011;840;47.980;7.830;2022-10-17T04:33:42;6.30;;;2.50;;
1685;SDS011;840;47.980;7.830;2022-10-17T04:36:12;3.10;;;2.10;;
1685;SDS011;840;47.980;7.830;2022-10-17T04:38:39;2.60;;;2.10;;
1685;SDS011;840;47.980;7.830;2022-10-17T04:41:09;3.07;;;2.43;;
1685;SDS011;840;47.980;7.830;2022-10-17T04:43:37;4.27;;;2.20;;
1685;SDS011;840;47.980;7.830;2022-10-17T04:46:06;4.83;;;2.70;;
1685;SDS011;840;47.980;7.830;2022-10-17T04:48:34;4.33;;;2.70;;
1685;SDS011;840;47.980;7.830;2022-10-17T04:51:02;4.20;;;3.03;;
1685;SDS011;840;47.980;7.830;2022-10-17T04:53:32;8.90;;;3.13;;
1685;SDS011;840;47.980;7.830;2022-10-17T04:56:00;4.13;;;1.97;;
1685;SDS011;840;47.980;7.830;2022-10-17T04:58:32;3.10;;;2.30;;
1685;SDS011;840;47.980;7.830;2022-10-17T05:00:58;2.80;;;2.60;;
1685;SDS011;840;47.980;7.830;2022-10-17T05:03:31;3.23;;;2.50;;
1685;SDS011;840;47.980;7.830;2022-10-17T05:05:58;8.90;;;3.10;;
1685;SDS011;840;47.980;7.830;2022-10-17T05:08:29;4.03;;;2.03;;
1685;SDS011;840;47.980;7.830;2022-10-17T05:10:55;4.23;;;2.70;;
1685;SDS011;840;47.980;7.830;2022-10-17T05:13:22;2.93;;;2.73;;
1685;SDS011;840;47.980;7.830;2022-10-17T05:15:49;3.17;;;2.73;;
1685;SDS011;840;47.980;7.830;2022-10-17T05:18:16;2.93;;;2.67;;
1685;SDS011;840;47.980;7.830;2022-10-17T05:20:44;7.50;;;3.10;;
1685;SDS011;840;47.980;7.830;2022-10-17T05:23:11;3.07;;;2.33;;
1685;SDS011;840;47.980;7.830;2022-10-17T05:25:38;4.67;;;3.60;;
1685;SDS011;840;47.980;7.830;2022-10-17T05:28:05;5.00;;;3.50;;
1685;SDS011;840;47.980;7.830;2022-10-17T05:30:32;2.80;;;2.50;;
1685;SDS011;840;47.980;7.830;2022-10-17T05:33:00;5.07;;;3.27;;
1685;SDS011;840;47.980;7.830;2022-10-17T05:35:27;5.23;;;2.90;;
1685;SDS011;840;47.980;7.830;2022-10-17T05:37:55;7.03;;;3.07;;
1685;SDS011;840;47.980;7.830;2022-10-17T05:40:23;3.37;;;2.80;;
1685;SDS011;840;47.980;7.830;2022-10-17T05:42:50;3.30;;;3.00;;
1685;SDS011;840;47.980;7.830;2022-10-17T05:45:17;3.20;;;2.90;;
1685;SDS011;840;47.980;7.830;2022-10-17T05:47:44;8.40;;;3.90;;
1685;SDS011;840;47.980;7.830;2022-10-17T05:50:10;6.13;;;3.10;;
1685;SDS011;840;47.980;7.830;2022-10-17T05:52:37;2.70;;;2.43;;
1685;SDS011;840;47.980;7.830;2022-10-17T05:55:06;5.10;;;3.47;;
1685;SDS011;840;47.980;7.830;2022-10-17T05:57:33;4.33;;;3.33;;
1685;SDS011;840;47.980;7.830;2022-10-17T06:00:00;6.00;;;4.90;;
1685;SDS011;840;47.980;7.830;2022-10-17T06:02:27;6.60;;;3.80;;
1685;SDS011;840;47.980;7.830;2022-10-17T06:04:54;5.60;;;3.73;;
1685;SDS011;840;47.980;7.830;2022-10-17T06:07:21;4.97;;;3.70;;
1685;SDS011;840;47.980;7.830;2022-10-17T06:09:47;5.00;;;3.27;;
1685;SDS011;840;47.980;7.830;2022-10-17T06:12:15;9.50;;;3.50;;
1685;SDS011;840;47.980;7.830;2022-10-17T06:14:42;5.07;;;4.33;;
1685;SDS011;840;47.980;7.830;2022-10-17T06:17:09;6.63;;;3.20;;
1685;SDS011;840;47.980;7.830;2022-10-17T06:19:36;12.90;;;4.43;;
1685;SDS011;840;47.980;7.830;2022-10-17T06:22:05;7.70;;;3.43;;
1685;SDS011;840;47.980;7.830;2022-10-17T06:24:32;7.03;;;3.70;;
1685;SDS011;840;47.980;7.830;2022-10-17T06:26:58;13.37;;;3.73;;
1685;SDS011;840;47.980;7.830;2022-10-17T06:29:26;3.30;;;3.00;;
1685;SDS011;840;47.980;7.830;2022-10-17T06:31:53;4.60;;;3.50;;
1685;SDS011;840;47.980;7.830;2022-10-17T06:34:20;5.77;;;4.57;;
1685;SDS011;840;47.980;7.830;2022-10-17T06:36:47;5.43;;;3.60;;
1685;SDS011;840;47.980;7.830;2022-10-17T06:39:14;19.03;;;5.27;;
1685;SDS011;840;47.980;7.830;2022-10-17T06:41:40;8.03;;;4.03;;
1685;SDS011;840;47.980;7.830;2022-10-17T06:44:08;8.10;;;4.10;;
1685;SDS011;840;47.980;7.830;2022-10-17T06:46:37;4.57;;;3.77;;
1685;SDS011;840;47.980;7.830;2022-10-17T06:49:04;10.70;;;5.30;;
1685;SDS011;840;47.980;7.830;2022-10-17T06:51:33;10.30;;;4.60;;
1685;SDS011;840;47.980;7.830;2022-10-17T06:54:01;5.10;;;4.60;;
1685;SDS011;840;47.980;7.830;2022-10-17T06:56:28;9.23;;;4.10;;
1685;SDS011;840;47.980;7.830;2022-10-17T06:58:55;12.10;;;4.80;;
1685;SDS011;840;47.980;7.830;2022-10-17T07:01:22;10.27;;;6.43;;
1685;SDS011;840;47.980;7.830;2022-10-17T07:03:50;7.37;;;6.00;;
1685;SDS011;840;47.980;7.830;2022-10-17T07:06:16;4.47;;;4.00;;
1685;SDS011;840;47.980;7.830;2022-10-17T07:08:44;10.27;;;9.17;;
1685;SDS011;840;47.980;7.830;2022-10-17T07:11:13;8.37;;;6.03;;
1685;SDS011;840;47.980;7.830;2022-10-17T07:13:41;8.20;;;7.50;;
1685;SDS011;840;47.980;7.830;2022-10-17T07:16:08;6.13;;;4.97;;
1685;SDS011;840;47.980;7.830;2022-10-17T07:18:36;7.50;;;4.37;;
1685;SDS011;840;47.980;7.830;2022-10-17T07:21:05;6.67;;;4.10;;
1685;SDS011;840;47.980;7.830;2022-10-17T07:23:32;4.33;;;3.93;;
1685;SDS011;840;47.980;7.830;2022-10-17T07:26:01;4.03;;;3.63;;
1685;SDS011;840;47.980;7.830;2022-10-17T07:28:31;7.00;;;5.17;;
1685;SDS011;840;47.980;7.830;2022-10-17T07:31:01;6.40;;;3.53;;
1685;SDS011;840;47.980;7.830;2022-10-17T07:33:29;36.37;;;11.03;;
1685;SDS011;840;47.980;7.830;2022-10-17T07:35:57;8.47;;;3.90;;
1685;SDS011;840;47.980;7.830;2022-10-17T07:38:25;11.30;;;9.07;;
1685;SDS011;840;47.980;7.830;2022-10-17T07:40:53;12.80;;;4.90;;
1685;SDS011;840;47.980;7.830;2022-10-17T07:43:21;15.70;;;9.40;;
1685;SDS011;840;47.980;7.830;2022-10-17T07:45:48;5.13;;;4.10;;
1685;SDS011;840;47.980;7.830;2022-10-17T07:48:15;6.30;;;3.03;;
1685;SDS011;840;47.980;7.830;2022-10-17T07:50:41;3.30;;;3.10;;
1685;SDS011;840;47.980;7.830;2022-10-17T07:53:08;6.33;;;3.13;;
1685;SDS011;840;47.980;7.830;2022-10-17T07:55:37;4.10;;;3.70;;
1685;SDS011;840;47.980;7.830;2022-10-17T07:58:03;5.63;;;3.17;;
1685;SDS011;840;47.980;7.830;2022-10-17T08:00:31;4.60;;;3.13;;
1685;SDS011;840;47.980;7.830;2022-10-17T08:02:58;5.27;;;2.80;;
1685;SDS011;840;47.980;7.830;2022-10-17T08:05:24;15.20;;;10.37;;
1685;SDS011;840;47.980;7.830;2022-10-17T08:07:51;4.73;;;4.23;;
1685;SDS011;840;47.980;7.830;2022-10-17T08:10:18;3.03;;;2.83;;
1685;SDS011;840;47.980;7.830;2022-10-17T08:12:46;9.73;;;4.30;;
1685;SDS011;840;47.980;7.830;2022-10-17T08:15:13;12.30;;;9.70;;
1685;SDS011;840;47.980;7.830;2022-10-17T08:17:40;30.00;;;19.10;;
1685;SDS011;840;47.980;7.830;2022-10-17T08:20:07;5.10;;;4.60;;
1685;SDS011;840;47.980;7.830;2022-10-17T08:22:35;16.30;;;10.80;;
1685;SDS011;840;47.980;7.830;2022-10-17T08:25:02;37.77;;;21.80;;
1685;SDS011;840;47.980;7.830;2022-10-17T08:27:28;16.87;;;10.53;;
1685;SDS011;840;47.980;7.830;2022-10-17T08:29:59;6.53;;;4.60;;
1685;SDS011;840;47.980;7.830;2022-10-17T08:32:27;4.07;;;3.67;;
1685;SDS011;840;47.980;7.830;2022-10-17T08:34:54;4.67;;;3.70;;
1685;SDS011;840;47.980;7.830;2022-10-17T08:37:21;3.83;;;3.37;;
1685;SDS011;840;47.980;7.830;2022-10-17T08:39:49;3.60;;;3.30;;
1685;SDS011;840;47.980;7.830;2022-10-17T08:42:28;4.87;;;4.47;;
1685;SDS011;840;47.980;7.830;2022-10-17T08:45:10;6.03;;;4.50;;
1685;SDS011;840;47.980;7.830;2022-10-17T08:47:42;4.67;;;4.07;;
1685;SDS011;840;47.980;7.830;2022-10-17T08:50:11;4.13;;;3.27;;
1685;SDS011;840;47.980;7.830;2022-10-17T08:52:44;4.63;;;3.80;;
1685;SDS011;840;47.980;7.830;2022-10-17T08:55:14;6.73;;;4.07;;
1685;SDS011;840;47.980;7.830;2022-10-17T08:57:43;4.80;;;3.47;;
1685;SDS011;840;47.980;7.830;2022-10-17T09:00:13;7.10;;;3.37;;
1685;SDS011;840;47.980;7.830;2022-10-17T09:02:47;3.50;;;3.13;;
1685;SDS011;840;47.980;7.830;2022-10-17T09:05:24;4.17;;;3.27;;
1685;SDS011;840;47.980;7.830;2022-10-17T09:07:59;7.50;;;3.30;;
1685;SDS011;840;47.980;7.830;2022-10-17T09:10:33;4.03;;;3.07;;
1685;SDS011;840;47.980;7.830;2022-10-17T09:13:15;5.37;;;3.80;;
1685;SDS011;840;47.980;7.830;2022-10-17T09:15:55;5.53;;;3.13;;
1685;SDS011;840;47.980;7.830;2022-10-17T09:18:35;7.83;;;3.60;;
1685;SDS011;840;47.980;7.830;2022-10-17T09:21:09;6.20;;;3.20;;
1685;SDS011;840;47.980;7.830;2022-10-17T09:23:43;2.80;;;2.60;;
1685;SDS011;840;47.980;7.830;2022-10-17T09:26:13;5.50;;;3.83;;
1685;SDS011;840;47.980;7.830;2022-10-17T09:28:40;5.00;;;3.50;;
1685;SDS011;840;47.980;7.830;2022-10-17T09:31:19;3.80;;;3.27;;
1685;SDS011;840;47.980;7.830;2022-10-17T09:33:49;6.13;;;3.50;;
1685;SDS011;840;47.980;7.830;2022-10-17T09:36:17;6.83;;;3.43;;
1685;SDS011;840;47.980;7.830;2022-10-17T09:38:46;4.70;;;3.50;;
1685;SDS011;840;47.980;7.830;2022-10-17T09:41:17;3.53;;;3.23;;
1685;SDS011;840;47.980;7.830;2022-10-17T09:43:45;4.77;;;3.53;;
1685;SDS011;840;47.980;7.830;2022-10-17T09:46:15;4.73;;;3.80;;
1685;SDS011;840;47.980;7.830;2022-10-17T09:48:49;7.53;;;3.70;;
1685;SDS011;840;47.980;7.830;2022-10-17T09:51:19;4.67;;;3.10;;
1685;SDS011;840;47.980;7.830;2022-10-17T09:53:47;7.50;;;3.70;;
1685;SDS011;840;47.980;7.830;2022-10-17T09:56:17;3.90;;;3.43;;
1685;SDS011;840;47.980;7.830;2022-10-17T09:58:46;4.70;;;2.97;;
1685;SDS011;840;47.980;7.830;2022-10-17T10:01:15;5.07;;;3.00;;
1685;SDS011;840;47.980;7.830;2022-10-17T10:04:09;7.10;;;2.87;;
1685;SDS011;840;47.980;7.830;2022-10-17T10:06:37;4.60;;;2.70;;
1685;SDS011;840;47.980;7.830;2022-10-17T10:09:05;3.50;;;3.10;;
1685;SDS011;840;47.980;7.830;2022-10-17T10:11:43;6.70;;;3.50;;
1685;SDS011;840;47.980;7.830;2022-10-17T10:14:12;9.13;;;3.47;;
1685;SDS011;840;47.980;7.830;2022-10-17T10:16:46;13.13;;;4.40;;
1685;SDS011;840;47.980;7.830;2022-10-17T10:19:20;7.73;;;2.80;;
1685;SDS011;840;47.980;7.830;2022-10-17T10:21:56;4.30;;;3.33;;
1685;SDS011;840;47.980;7.830;2022-10-17T10:24:24;9.30;;;3.10;;
1685;SDS011;840;47.980;7.830;2022-10-17T10:26:52;3.63;;;2.77;;
1685;SDS011;840;47.980;7.830;2022-10-17T10:29:22;4.00;;;2.70;;
1685;SDS011;840;47.980;7.830;2022-10-17T10:31:53;3.27;;;2.50;;
1685;SDS011;840;47.980;7.830;2022-10-17T10:34:22;3.93;;;2.60;;
1685;SDS011;840;47.980;7.830;2022-10-17T10:36:53;4.97;;;2.70;;
1685;SDS011;840;47.980;7.830;2022-10-17T10:39:25;3.83;;;3.37;;
1685;SDS011;840;47.980;7.830;2022-10-17T10:42:07;9.50;;;2.77;;
1685;SDS011;840;47.980;7.830;2022-10-17T10:44:43;2.90;;;2.70;;
1685;SDS011;840;47.980;7.830;2022-10-17T10:47:18;5.03;;;2.90;;
1685;SDS011;840;47.980;7.830;2022-10-17T10:49:51;4.93;;;2.50;;
1685;SDS011;840;47.980;7.830;2022-10-17T10:52:31;5.83;;;2.70;;
1685;SDS011;840;47.980;7.830;2022-10-17T10:55:10;8.80;;;2.50;;
1685;SDS011;840;47.980;7.830;2022-10-17T10:57:42;2.60;;;2.40;;
1685;SDS011;840;47.980;7.830;2022-10-17T11:00:12;5.37;;;2.60;;
1685;SDS011;840;47.980;7.830;2022-10-17T11:02:44;6.20;;;3.13;;
1685;SDS011;840;47.980;7.830;2022-10-17T11:05:21;5.93;;;2.53;;
1685;SDS011;840;47.980;7.830;2022-10-17T11:07:58;3.00;;;2.20;;
1685;SDS011;840;47.980;7.830;2022-10-17T11:10:30;3.57;;;2.77;;
1685;SDS011;840;47.980;7.830;2022-10-17T11:13:03;1.70;;;1.60;;
1685;SDS011;840;47.980;7.830;2022-10-17T11:15:36;3.73;;;2.40;;
1685;SDS011;840;47.980;7.830;2022-10-17T11:18:10;3.27;;;2.00;;
1685;SDS011;840;47.980;7.830;2022-10-17T11:20:47;2.17;;;1.60;;
1685;SDS011;840;47.980;7.830;2022-10-17T11:23:24;1.60;;;1.50;;
1685;SDS011;840;47.980;7.830;2022-10-17T11:25:56;2.60;;;1.53;;
1685;SDS011;840;47.980;7.830;2022-10-17T11:28:26;1.87;;;1.50;;
1685;SDS011;840;47.980;7.830;2022-10-17T11:30:55;4.10;;;2.07;;
1685;SDS011;840;47.980;7.830;2022-10-17T11:33:27;1.50;;;1.40;;
1685;SDS011;840;47.980;7.830;2022-10-17T11:36:00;4.13;;;1.73;;
1685;SDS011;840;47.980;7.830;2022-10-17T11:38:35;1.20;;;1.03;;
1685;SDS011;840;47.980;7.830;2022-10-17T11:41:07;2.93;;;1.63;;
1685;SDS011;840;47.980;7.830;2022-10-17T11:43:39;4.03;;;1.60;;
1685;SDS011;840;47.980;7.830;2022-10-17T11:46:11;3.73;;;1.20;;
1685;SDS011;840;47.980;7.830;2022-10-17T11:48:44;2.20;;;1.73;;
1685;SDS011;840;47.980;7.830;2022-10-17T11:51:22;3.50;;;0.97;;
1685;SDS011;840;47.980;7.830;2022-10-17T11:53:50;1.77;;;1.50;;
1685;SDS011;840;47.980;7.830;2022-10-17T11:56:24;3.10;;;1.60;;
1685;SDS011;840;47.980;7.830;2022-10-17T11:59:08;3.90;;;1.60;;
1685;SDS011;840;47.980;7.830;2022-10-17T12:01:51;5.77;;;1.17;;
1685;SDS011;840;47.980;7.830;2022-10-17T12:04:22;2.90;;;1.63;;
1685;SDS011;840;47.980;7.830;2022-10-17T12:07:07;2.27;;;1.53;;
1685;SDS011;840;47.980;7.830;2022-10-17T12:09:41;5.20;;;2.10;;
1685;SDS011;840;47.980;7.830;2022-10-17T12:12:22;1.60;;;1.50;;
1685;SDS011;840;47.980;7.830;2022-10-17T12:14:51;1.70;;;1.53;;
1685;SDS011;840;47.980;7.830;2022-10-17T12:23:18;2.57;;;1.47;;
1685;SDS011;840;47.980;7.830;2022-10-17T12:25:49;4.20;;;1.70;;
1685;SDS011;840;47.980;7.830;2022-10-17T12:28:20;0.93;;;0.93;;
1685;SDS011;840;47.980;7.830;2022-10-17T12:30:53;1.77;;;0.90;;
1685;SDS011;840;47.980;7.830;2022-10-17T12:33:25;3.60;;;1.27;;
1685;SDS011;840;47.980;7.830;2022-10-17T12:51:19;2.60;;;2.17;;
1685;SDS011;840;47.980;7.830;2022-10-17T12:53:50;1.80;;;1.70;;
1685;SDS011;840;47.980;7.830;2022-10-17T12:56:29;7.20;;;1.47;;
1685;SDS011;840;47.980;7.830;2022-10-17T12:59:01;1.80;;;1.10;;
1685;SDS011;840;47.980;7.830;2022-10-17T13:01:33;1.30;;;1.20;;
1685;SDS011;840;47.980;7.830;2022-10-17T13:04:03;3.77;;;1.80;;
1685;SDS011;840;47.980;7.830;2022-10-17T13:06:31;3.03;;;2.03;;
1685;SDS011;840;47.980;7.830;2022-10-17T13:09:03;2.17;;;1.30;;
1685;SDS011;840;47.980;7.830;2022-10-17T13:11:33;1.40;;;1.30;;
1685;SDS011;840;47.980;7.830;2022-10-17T13:14:03;3.53;;;1.60;;
1685;SDS011;840;47.980;7.830;2022-10-17T13:16:38;1.77;;;1.40;;
1685;SDS011;840;47.980;7.830;2022-10-17T13:19:11;3.00;;;1.47;;
1685;SDS011;840;47.980;7.830;2022-10-17T13:21:48;1.90;;;1.30;;
1685;SDS011;840;47.980;7.830;2022-10-17T13:24:19;1.70;;;1.53;;
1685;SDS011;840;47.980;7.830;2022-10-17T13:26:46;3.57;;;1.80;;
1685;SDS011;840;47.980;7.830;2022-10-17T13:29:15;1.53;;;1.37;;
1685;SDS011;840;47.980;7.830;2022-10-17T13:31:44;1.20;;;1.20;;
1685;SDS011;840;47.980;7.830;2022-10-17T13:34:19;2.90;;;1.60;;
1685;SDS011;840;47.980;7.830;2022-10-17T13:36:47;1.27;;;1.17;;
1685;SDS011;840;47.980;7.830;2022-10-17T13:39:18;1.50;;;1.40;;
1685;SDS011;840;47.980;7.830;2022-10-17T13:41:47;9.07;;;1.53;;
1685;SDS011;840;47.980;7.830;2022-10-17T13:44:17;3.07;;;1.20;;
1685;SDS011;840;47.980;7.830;2022-10-17T13:46:45;1.47;;;1.20;;
1685;SDS011;840;47.980;7.830;2022-10-17T13:49:17;1.83;;;1.67;;
1685;SDS011;840;47.980;7.830;2022-10-17T13:51:47;2.53;;;1.53;;
1685;SDS011;840;47.980;7.830;2022-10-17T13:54:16;1.70;;;1.60;;
1685;SDS011;840;47.980;7.830;2022-10-17T13:56:45;2.17;;;1.67;;
1685;SDS011;840;47.980;7.830;2022-10-17T13:59:18;3.20;;;1.87;;
1685;SDS011;840;47.980;7.830;2022-10-17T14:01:47;3.00;;;1.70;;
1685;SDS011;840;47.980;7.830;2022-10-17T14:04:16;1.53;;;1.43;;
1685;SDS011;840;47.980;7.830;2022-10-17T14:06:43;1.40;;;1.30;;
1685;SDS011;840;47.980;7.830;2022-10-17T14:09:15;2.20;;;1.50;;
1685;SDS011;840;47.980;7.830;2022-10-17T14:11:45;4.10;;;1.83;;
1685;SDS011;840;47.980;7.830;2022-10-17T14:14:25;1.30;;;1.20;;
1685;SDS011;840;47.980;7.830;2022-10-17T14:16:53;1.00;;;0.90;;
1685;SDS011;840;47.980;7.830;2022-10-17T14:19:23;1.03;;;1.03;;
1685;SDS011;840;47.980;7.830;2022-10-17T14:21:52;2.23;;;1.30;;
1685;SDS011;840;47.980;7.830;2022-10-17T14:24:28;2.20;;;1.17;;
1685;SDS011;840;47.980;7.830;2022-10-17T14:26:57;6.17;;;1.60;;
1685;SDS011;840;47.980;7.830;2022-10-17T14:29:26;2.23;;;1.50;;
1685;SDS011;840;47.980;7.830;2022-10-17T14:31:56;2.20;;;1.20;;
1685;SDS011;840;47.980;7.830;2022-10-17T14:34:26;1.10;;;1.10;;
1685;SDS011;840;47.980;7.830;2022-10-17T14:36:57;4.40;;;1.33;;
1685;SDS011;840;47.980;7.830;2022-10-17T14:39:25;1.73;;;1.13;;
1685;SDS011;840;47.980;7.830;2022-10-17T14:41:53;1.67;;;1.50;;
1685;SDS011;840;47.980;7.830;2022-10-17T14:44:21;3.90;;;1.40;;
1685;SDS011;840;47.980;7.830;2022-10-17T14:46:56;1.47;;;1.27;;
1685;SDS011;840;47.980;7.830;2022-10-17T14:49:30;1.73;;;1.20;;
1685;SDS011;840;47.980;7.830;2022-10-17T14:52:09;1.67;;;1.57;;
1685;SDS011;840;47.980;7.830;2022-10-17T14:54:51;2.00;;;1.80;;
1685;SDS011;840;47.980;7.830;2022-10-17T14:57:18;1.60;;;1.40;;
1685;SDS011;840;47.980;7.830;2022-10-17T14:59:48;1.73;;;1.63;;
1685;SDS011;840;47.980;7.830;2022-10-17T15:02:16;6.10;;;1.57;;
1685;SDS011;840;47.980;7.830;2022-10-17T15:04:43;1.43;;;1.13;;
1685;SDS011;840;47.980;7.830;2022-10-17T15:07:11;1.90;;;1.50;;
1685;SDS011;840;47.980;7.830;2022-10-17T15:09:39;2.07;;;1.30;;
1685;SDS011;840;47.980;7.830;2022-10-17T15:12:10;2.70;;;1.27;;
1685;SDS011;840;47.980;7.830;2022-10-17T15:14:40;1.43;;;1.30;;
1685;SDS011;840;47.980;7.830;2022-10-17T15:17:09;1.37;;;1.27;;
1685;SDS011;840;47.980;7.830;2022-10-17T15:19:40;1.70;;;1.17;;
1685;SDS011;840;47.980;7.830;2022-10-17T15:22:07;1.07;;;1.07;;
1685;SDS011;840;47.980;7.830;2022-10-17T15:24:34;1.63;;;1.27;;
1685;SDS011;840;47.980;7.830;2022-10-17T15:27:01;1.50;;;1.10;;
1685;SDS011;840;47.980;7.830;2022-10-17T15:29:28;2.33;;;1.30;;
1685;SDS011;840;47.980;7.830;2022-10-17T15:31:55;1.70;;;1.30;;
1685;SDS011;840;47.980;7.830;2022-10-17T15:34:22;2.20;;;1.40;;
1685;SDS011;840;47.980;7.830;2022-10-17T15:36:50;1.43;;;1.20;;
1685;SDS011;840;47.980;7.830;2022-10-17T15:39:18;3.30;;;1.23;;
1685;SDS011;840;47.980;7.830;2022-10-17T15:41:45;1.40;;;1.30;;
1685;SDS011;840;47.980;7.830;2022-10-17T15:44:13;1.87;;;1.37;;
1685;SDS011;840;47.980;7.830;2022-10-17T15:46:40;2.90;;;1.53;;
1685;SDS011;840;47.980;7.830;2022-10-17T15:49:09;1.67;;;1.50;;
1685;SDS011;840;47.980;7.830;2022-10-17T15:51:37;8.73;;;2.17;;
1685;SDS011;840;47.980;7.830;2022-10-17T15:54:05;1.73;;;1.63;;
1685;SDS011;840;47.980;7.830;2022-10-17T15:56:33;2.27;;;1.60;;
1685;SDS011;840;47.980;7.830;2022-10-17T15:59:01;3.67;;;1.70;;
1685;SDS011;840;47.980;7.830;2022-10-17T16:01:29;2.47;;;1.80;;
1685;SDS011;840;47.980;7.830;2022-10-17T16:03:57;3.87;;;2.40;;
1685;SDS011;840;47.980;7.830;2022-10-17T16:06:25;3.13;;;1.77;;
1685;SDS011;840;47.980;7.830;2022-10-17T16:08:52;7.33;;;1.87;;